createdAt,value
2022-11-02T00:00:58.999Z,95.37
2022-11-02T00:01:59.031Z,95.17
2022-11-02T00:02:59.010Z,95.48
2022-11-02T00:03:58.944Z,95.68
2022-11-02T00:04:58.946Z,95.89
2022-11-02T00:05:58.975Z,95.89
2022-11-02T00:06:58.924Z,96.09
2022-11-02T00:07:58.922Z,95.99
2022-11-02T00:08:58.904Z,95.99
2022-11-02T00:09:58.929Z,95.89
2022-11-02T00:10:58.887Z,96.25
2022-11-02T00:11:58.881Z,95.68
2022-11-02T00:12:58.875Z,96.30
2022-11-02T00:13:58.889Z,96.09
2022-11-02T00:14:58.886Z,95.89
2022-11-02T00:15:58.883Z,95.68
2022-11-02T00:16:58.845Z,95.78
2022-11-02T00:17:58.872Z,95.68
2022-11-02T00:18:58.845Z,95.99
2022-11-02T00:19:58.825Z,96.41
2022-11-02T00:20:58.842Z,96.24
2022-11-02T00:21:58.844Z,95.89
2022-11-02T00:22:58.802Z,96.20
2022-11-02T00:23:58.798Z,96.61
2022-11-02T00:24:58.810Z,96.50
2022-11-02T00:26:02.176Z,96.41
2022-11-02T00:26:59.773Z,96.41
2022-11-02T00:27:58.768Z,96.09
2022-11-02T00:28:58.764Z,96.20
2022-11-02T00:29:58.751Z,95.78
2022-11-02T00:30:58.777Z,95.78
2022-11-02T00:31:58.750Z,95.78
2022-11-02T00:32:58.727Z,95.89
2022-11-02T00:33:58.721Z,95.68
2022-11-02T00:34:58.786Z,96.09
2022-11-02T00:35:58.740Z,96.30
2022-11-02T00:36:58.699Z,96.30
2022-11-02T00:37:58.685Z,95.68
2022-11-02T00:38:58.695Z,95.23
2022-11-02T00:39:58.677Z,95.48
2022-11-02T00:40:58.691Z,95.33
2022-11-02T00:41:58.657Z,95.17
2022-11-02T00:42:58.652Z,95.02
2022-11-02T00:43:58.635Z,94.92
2022-11-02T00:44:58.657Z,95.02
2022-11-02T00:45:58.659Z,95.12
2022-11-02T00:46:58.625Z,95.12
2022-11-02T00:47:58.608Z,94.81
2022-11-02T00:48:58.594Z,94.71
2022-11-02T00:49:58.597Z,94.71
2022-11-02T00:50:58.642Z,94.20
2022-11-02T00:51:58.590Z,94.56
2022-11-02T00:52:58.573Z,94.67
2022-11-02T00:53:58.563Z,94.67
2022-11-02T00:54:58.555Z,94.46
2022-11-02T00:55:58.595Z,94.56
2022-11-02T00:56:58.616Z,94.46
2022-11-02T00:57:58.551Z,94.36
2022-11-02T00:58:58.521Z,94.56
2022-11-02T00:59:58.517Z,94.46
2022-11-02T01:00:58.585Z,94.31
2022-11-02T01:01:58.593Z,94.11
2022-11-02T01:02:58.492Z,94.11
2022-11-02T01:03:58.492Z,94.42
2022-11-02T01:04:58.472Z,94.11
2022-11-02T01:05:58.502Z,94.11
2022-11-02T01:06:58.469Z,94.17
2022-11-02T01:07:58.450Z,93.59
2022-11-02T01:08:59.452Z,93.70
2022-11-02T01:09:58.450Z,93.70
2022-11-02T01:10:58.681Z,93.49
2022-11-02T01:11:58.432Z,93.29
2022-11-02T01:12:58.433Z,93.33
2022-11-02T01:13:58.420Z,93.33
2022-11-02T01:14:58.401Z,93.74
2022-11-02T01:15:58.425Z,94.15
2022-11-02T01:16:58.388Z,94.40
2022-11-02T01:17:58.385Z,94.51
2022-11-02T01:18:58.395Z,94.40
2022-11-02T01:19:58.362Z,94.65
2022-11-02T01:20:58.397Z,94.85
2022-11-02T01:21:58.346Z,94.85
2022-11-02T01:22:58.339Z,95.48
2022-11-02T01:23:58.331Z,96.20
2022-11-02T01:24:58.330Z,95.78
2022-11-02T01:25:58.345Z,96.09
2022-11-02T01:26:58.310Z,95.42
2022-11-02T01:27:58.301Z,95.83
2022-11-02T01:28:58.297Z,95.98
2022-11-02T01:29:58.290Z,95.73
2022-11-02T01:30:58.315Z,96.49
2022-11-02T01:31:58.278Z,96.39
2022-11-02T01:32:58.275Z,97.21
2022-11-02T01:33:58.258Z,97.21
2022-11-02T01:34:58.255Z,97.21
2022-11-02T01:35:58.270Z,97.36
2022-11-02T01:36:58.248Z,96.53
2022-11-02T01:37:58.230Z,96.80
2022-11-02T01:38:58.221Z,97.26
2022-11-02T01:39:58.214Z,97.52
2022-11-02T01:40:58.241Z,97.47
2022-11-02T01:41:58.201Z,97.36
2022-11-02T01:42:58.199Z,97.67
2022-11-02T01:43:58.192Z,97.98
2022-11-02T01:44:58.174Z,97.67
2022-11-02T01:45:58.194Z,97.77
2022-11-02T01:46:58.170Z,97.67
2022-11-02T01:47:58.151Z,97.77
2022-11-02T01:48:58.153Z,98.08
2022-11-02T01:49:58.138Z,98.24
2022-11-02T01:50:58.172Z,98.50
2022-11-02T01:51:58.122Z,98.39
2022-11-02T01:52:58.118Z,97.77
2022-11-02T01:53:58.106Z,97.88
2022-11-02T01:54:58.133Z,97.98
2022-11-02T01:55:58.138Z,97.77
2022-11-02T01:56:58.091Z,97.77
2022-11-02T01:57:58.086Z,97.56
2022-11-02T01:58:58.069Z,98.13
2022-11-02T01:59:58.061Z,98.60
2022-11-02T02:00:58.104Z,99.22
2022-11-02T02:01:58.142Z,98.70
2022-11-02T02:02:58.122Z,98.39
2022-11-02T02:03:58.042Z,97.36
2022-11-02T02:04:58.033Z,96.99
2022-11-02T02:05:58.059Z,97.20
2022-11-02T02:06:58.013Z,97.55
2022-11-02T02:07:58.224Z,98.07
2022-11-02T02:08:58.000Z,98.69
2022-11-02T02:10:00.651Z,98.79
2022-11-02T02:10:58.012Z,97.86
2022-11-02T02:11:57.971Z,97.76
2022-11-02T02:12:57.965Z,97.81
2022-11-02T02:13:57.960Z,99.10
2022-11-02T02:14:58.956Z,99.52
2022-11-02T02:15:57.997Z,99.99
2022-11-02T02:16:57.937Z,99.52
2022-11-02T02:17:57.929Z,99.57
2022-11-02T02:18:57.949Z,99.99
2022-11-02T02:19:57.921Z,99.99
2022-11-02T02:20:57.931Z,99.99
2022-11-02T02:21:57.907Z,99.99
2022-11-02T02:22:57.891Z,99.57
2022-11-02T02:23:57.888Z,99.43
2022-11-02T02:24:57.880Z,99.73
2022-11-02T02:25:57.900Z,99.94
2022-11-02T02:26:57.862Z,99.94
2022-11-02T02:27:57.859Z,99.52
2022-11-02T02:28:57.848Z,99.22
2022-11-02T02:29:57.833Z,99.32
2022-11-02T02:30:57.861Z,99.22
2022-11-02T02:31:57.819Z,99.22
2022-11-02T02:32:57.826Z,99.43
2022-11-02T02:33:57.826Z,99.63
2022-11-02T02:34:57.826Z,99.52
2022-11-02T02:35:57.814Z,99.32
2022-11-02T02:36:57.793Z,99.99
2022-11-02T02:37:57.775Z,99.63
2022-11-02T02:38:57.765Z,99.48
2022-11-02T02:39:57.763Z,99.69
2022-11-02T02:40:57.797Z,99.27
2022-11-02T02:41:57.742Z,99.99
2022-11-02T02:42:57.741Z,99.18
2022-11-02T02:43:58.729Z,99.29
2022-11-02T02:44:57.719Z,98.46
2022-11-02T02:45:57.738Z,98.36
2022-11-02T02:46:57.704Z,98.57
2022-11-02T02:47:57.716Z,98.57
2022-11-02T02:48:57.692Z,98.36
2022-11-02T02:49:57.689Z,97.64
2022-11-02T02:50:57.699Z,97.64
2022-11-02T02:51:57.674Z,98.15
2022-11-02T02:52:57.661Z,98.15
2022-11-02T02:53:57.651Z,97.74
2022-11-02T02:54:57.651Z,97.60
2022-11-02T02:55:57.674Z,97.49
2022-11-02T02:56:57.646Z,97.08
2022-11-02T02:57:57.620Z,96.83
2022-11-02T02:58:57.617Z,97.08
2022-11-02T02:59:57.614Z,96.31
2022-11-02T03:00:57.615Z,96.52
2022-11-02T03:01:58.711Z,96.52
2022-11-02T03:02:57.584Z,95.65
2022-11-02T03:03:57.589Z,96.06
2022-11-02T03:04:57.566Z,95.86
2022-11-02T03:05:57.591Z,95.45
2022-11-02T03:06:57.552Z,95.03
2022-11-02T03:07:57.552Z,95.24
2022-11-02T03:08:57.540Z,94.83
2022-11-02T03:09:57.532Z,93.18
2022-11-02T03:10:57.554Z,92.14
2022-11-02T03:11:57.522Z,93.37
2022-11-02T03:12:57.513Z,94.30
2022-11-02T03:13:57.500Z,94.51
2022-11-02T03:14:57.501Z,94.55
2022-11-02T03:15:57.514Z,94.96
2022-11-02T03:17:57.475Z,96.03
2022-11-02T03:18:57.460Z,96.66
2022-11-02T03:19:58.459Z,96.45
2022-11-02T03:20:57.482Z,96.55
2022-11-02T03:21:57.458Z,96.86
2022-11-02T03:22:57.439Z,96.59
2022-11-02T03:23:57.435Z,96.91
2022-11-02T03:24:57.441Z,97.21
2022-11-02T03:25:57.440Z,96.74
2022-11-02T03:26:57.406Z,97.26
2022-11-02T03:27:57.406Z,97.47
2022-11-02T03:28:57.394Z,97.73
2022-11-02T03:29:57.380Z,98.39
2022-11-02T03:30:57.412Z,98.19
2022-11-02T03:31:57.368Z,98.08
2022-11-02T03:32:57.360Z,98.50
2022-11-02T03:33:57.356Z,97.56
2022-11-02T03:34:57.344Z,97.77
2022-11-02T03:35:57.391Z,97.77
2022-11-02T03:36:57.419Z,97.83
2022-11-02T03:37:57.335Z,97.77
2022-11-02T03:38:57.320Z,97.67
2022-11-02T03:39:57.302Z,97.56
2022-11-02T03:40:57.367Z,97.98
2022-11-02T03:41:57.319Z,98.60
2022-11-02T03:42:57.281Z,98.50
2022-11-02T03:43:57.277Z,98.50
2022-11-02T03:44:57.283Z,98.39
2022-11-02T03:45:57.260Z,98.60
2022-11-02T03:46:57.272Z,98.39
2022-11-02T03:47:57.237Z,98.50
2022-11-02T03:48:57.237Z,98.60
2022-11-02T03:49:57.229Z,98.60
2022-11-02T03:50:57.214Z,98.44
2022-11-02T03:51:57.239Z,98.96
2022-11-02T03:52:57.210Z,98.91
2022-11-02T03:53:57.195Z,99.43
2022-11-02T03:54:57.185Z,99.37
2022-11-02T03:55:57.177Z,99.16
2022-11-02T03:56:57.227Z,99.11
2022-11-02T03:57:57.161Z,99.43
2022-11-02T03:58:57.160Z,99.52
2022-11-02T03:59:57.155Z,99.07
2022-11-02T04:00:57.142Z,99.27
2022-11-02T04:01:57.245Z,98.91
2022-11-02T04:02:57.146Z,99.22
2022-11-02T04:03:57.114Z,98.60
2022-11-02T04:04:57.123Z,98.80
2022-11-02T04:05:57.102Z,98.91
2022-11-02T04:06:57.120Z,98.86
2022-11-02T04:07:59.489Z,98.97
2022-11-02T04:08:57.079Z,99.43
2022-11-02T04:09:57.075Z,99.07
2022-11-02T04:10:57.073Z,99.27
2022-11-02T04:11:57.083Z,99.38
2022-11-02T04:12:57.059Z,99.27
2022-11-02T04:13:57.054Z,99.23
2022-11-02T04:14:57.033Z,99.13
2022-11-02T04:15:57.030Z,99.02
2022-11-02T04:16:57.050Z,99.33
2022-11-02T04:17:57.016Z,99.23
2022-11-02T04:18:57.005Z,98.71
2022-11-02T04:19:57.001Z,98.71
2022-11-02T04:20:57.037Z,98.82
2022-11-02T04:21:57.015Z,99.18
2022-11-02T04:22:56.985Z,98.88
2022-11-02T04:23:56.981Z,98.97
2022-11-02T04:24:56.964Z,98.88
2022-11-02T04:25:56.966Z,98.41
2022-11-02T04:26:56.988Z,98.20
2022-11-02T04:27:56.983Z,98.55
2022-11-02T04:28:56.930Z,98.45
2022-11-02T04:29:56.921Z,98.76
2022-11-02T04:30:56.915Z,98.86
2022-11-02T04:31:56.958Z,99.27
2022-11-02T04:32:56.898Z,99.27
2022-11-02T04:33:56.889Z,99.07
2022-11-02T04:34:56.890Z,99.27
2022-11-02T04:35:56.872Z,98.92
2022-11-02T04:36:56.901Z,99.23
2022-11-02T04:37:56.865Z,99.13
2022-11-02T04:38:56.861Z,99.64
2022-11-02T04:39:56.846Z,99.74
2022-11-02T04:40:56.838Z,99.54
2022-11-02T04:41:56.859Z,99.74
2022-11-02T04:42:56.819Z,99.95
2022-11-02T04:43:56.813Z,99.99
2022-11-02T04:44:56.810Z,99.99
2022-11-02T04:45:56.801Z,99.99
2022-11-02T04:46:56.829Z,99.99
2022-11-02T04:47:56.785Z,99.99
2022-11-02T04:48:56.798Z,99.99
2022-11-02T04:49:56.772Z,99.99
2022-11-02T04:50:56.853Z,99.99
2022-11-02T04:51:56.874Z,99.99
2022-11-02T04:52:56.753Z,99.99
2022-11-02T04:53:56.752Z,99.99
2022-11-02T04:54:56.739Z,99.99
2022-11-02T04:55:56.729Z,99.99
2022-11-02T04:56:56.740Z,99.99
2022-11-02T04:57:56.713Z,99.99
2022-11-02T04:58:56.702Z,99.99
2022-11-02T04:59:56.760Z,99.99
2022-11-02T05:00:56.690Z,99.99
2022-11-02T05:01:56.843Z,99.99
2022-11-02T05:02:56.712Z,99.99
2022-11-02T05:03:56.677Z,99.99
2022-11-02T05:04:56.662Z,99.99
2022-11-02T05:05:56.658Z,99.99
2022-11-02T05:07:01.199Z,99.99
2022-11-02T05:07:58.650Z,99.99
2022-11-02T05:08:56.629Z,99.99
2022-11-02T05:09:56.625Z,99.99
2022-11-02T05:10:56.616Z,99.99
2022-11-02T05:11:56.681Z,99.99
2022-11-02T05:12:56.601Z,99.99
2022-11-02T05:13:56.596Z,99.99
2022-11-02T05:14:56.583Z,99.99
2022-11-02T05:15:56.604Z,99.99
2022-11-02T05:16:56.608Z,99.99
2022-11-02T05:17:56.597Z,99.99
2022-11-02T05:18:56.569Z,99.99
2022-11-02T05:19:56.559Z,99.99
2022-11-02T05:20:56.544Z,99.99
2022-11-02T05:21:56.572Z,99.99
2022-11-02T05:22:56.533Z,99.99
2022-11-02T05:23:56.524Z,99.99
2022-11-02T05:24:56.511Z,99.99
2022-11-02T05:25:56.520Z,99.99
2022-11-02T05:26:56.527Z,99.99
2022-11-02T05:27:56.494Z,99.99
2022-11-02T05:28:56.480Z,99.99
2022-11-02T05:29:56.476Z,99.99
2022-11-02T05:30:56.468Z,99.99
2022-11-02T05:31:56.490Z,99.99
2022-11-02T05:32:56.455Z,99.99
2022-11-02T05:33:56.443Z,99.99
2022-11-02T05:34:56.444Z,99.99
2022-11-02T05:35:56.436Z,99.99
2022-11-02T05:36:56.451Z,99.99
2022-11-02T05:37:56.419Z,99.99
2022-11-02T05:38:56.410Z,99.99
2022-11-02T05:39:56.405Z,99.99
2022-11-02T05:40:56.404Z,99.99
2022-11-02T05:41:56.424Z,99.99
2022-11-02T05:42:58.048Z,99.99
2022-11-02T05:43:56.368Z,99.99
2022-11-02T05:44:56.366Z,99.99
2022-11-02T05:45:56.420Z,99.99
2022-11-02T05:46:56.374Z,99.99
2022-11-02T05:47:56.343Z,99.99
2022-11-02T05:48:56.341Z,99.99
2022-11-02T05:49:56.330Z,99.99
2022-11-02T05:50:56.320Z,99.99
2022-11-02T05:51:56.336Z,99.99
2022-11-02T05:52:56.318Z,99.99
2022-11-02T05:53:56.292Z,99.99
2022-11-02T05:54:56.301Z,99.99
2022-11-02T05:55:56.285Z,99.99
2022-11-02T05:56:56.299Z,99.99
2022-11-02T05:57:56.277Z,99.99
2022-11-02T05:58:56.269Z,99.99
2022-11-02T05:59:56.252Z,99.99
2022-11-02T06:00:56.257Z,99.99
2022-11-02T06:01:56.322Z,99.99
2022-11-02T06:02:56.229Z,99.99
2022-11-02T06:03:56.221Z,99.99
2022-11-02T06:04:56.302Z,99.99
2022-11-02T06:05:56.186Z,99.99
2022-11-02T06:06:57.224Z,99.99
2022-11-02T06:07:56.192Z,99.99
2022-11-02T06:08:56.183Z,99.99
2022-11-02T06:09:56.178Z,99.99
2022-11-02T06:10:56.178Z,99.99
2022-11-02T06:11:56.191Z,99.99
2022-11-02T06:12:56.150Z,99.99
2022-11-02T06:13:56.137Z,99.99
2022-11-02T06:14:56.139Z,99.99
2022-11-02T06:15:56.134Z,99.99
2022-11-02T06:16:56.165Z,99.99
2022-11-02T06:17:56.110Z,99.99
2022-11-02T06:18:56.100Z,99.99
2022-11-02T06:19:56.097Z,99.99
2022-11-02T06:20:56.085Z,99.99
2022-11-02T06:21:56.104Z,99.99
2022-11-02T06:22:56.069Z,99.99
2022-11-02T06:23:56.064Z,99.99
2022-11-02T06:24:56.062Z,99.99
2022-11-02T06:25:56.049Z,99.99
2022-11-02T06:26:56.229Z,99.99
2022-11-02T06:27:56.040Z,99.99
2022-11-02T06:28:56.059Z,99.99
2022-11-02T06:29:56.055Z,99.99
2022-11-02T06:30:56.017Z,99.99
2022-11-02T06:31:56.015Z,99.99
2022-11-02T06:32:56.016Z,99.99
2022-11-02T06:33:56.021Z,99.99
2022-11-02T06:34:55.989Z,99.99
2022-11-02T06:35:55.984Z,99.99
2022-11-02T06:36:55.971Z,99.99
2022-11-02T06:37:56.003Z,99.99
2022-11-02T06:38:55.961Z,99.99
2022-11-02T06:39:55.962Z,99.99
2022-11-02T06:40:55.939Z,99.98
2022-11-02T06:41:55.931Z,99.73
2022-11-02T06:43:15.337Z,99.99
2022-11-02T06:43:57.942Z,99.83
2022-11-02T06:44:55.908Z,99.63
2022-11-02T06:45:55.923Z,99.73
2022-11-02T06:46:55.898Z,99.63
2022-11-02T06:47:55.911Z,99.01
2022-11-02T06:48:55.871Z,99.21
2022-11-02T06:49:55.865Z,99.32
2022-11-02T06:50:56.861Z,99.21
2022-11-02T06:51:55.857Z,99.38
2022-11-02T06:52:55.872Z,99.63
2022-11-02T06:53:55.835Z,99.48
2022-11-02T06:54:55.832Z,99.58
2022-11-02T06:55:55.820Z,98.71
2022-11-02T06:56:55.816Z,98.92
2022-11-02T06:57:55.836Z,98.41
2022-11-02T06:58:55.820Z,98.51
2022-11-02T06:59:55.825Z,97.85
2022-11-02T07:00:55.861Z,97.85
2022-11-02T07:01:55.910Z,97.74
2022-11-02T07:02:55.797Z,97.74
2022-11-02T07:03:55.796Z,97.85
2022-11-02T07:04:55.755Z,96.98
2022-11-02T07:05:55.747Z,97.04
2022-11-02T07:06:55.734Z,96.63
2022-11-02T07:07:55.755Z,96.37
2022-11-02T07:08:55.722Z,96.32
2022-11-02T07:09:55.716Z,96.42
2022-11-02T07:10:55.705Z,96.12
2022-11-02T07:11:55.691Z,96.22
2022-11-02T07:12:55.708Z,95.97
2022-11-02T07:13:55.707Z,95.29
2022-11-02T07:14:55.675Z,95.66
2022-11-02T07:15:55.665Z,94.74
2022-11-02T07:16:55.663Z,94.02
2022-11-02T07:17:55.667Z,94.02
2022-11-02T07:18:56.636Z,94.02
2022-11-02T07:19:55.637Z,94.02
2022-11-02T07:20:55.619Z,93.92
2022-11-02T07:21:55.616Z,93.77
2022-11-02T07:22:55.649Z,93.88
2022-11-02T07:23:55.611Z,93.98
2022-11-02T07:24:55.595Z,93.43
2022-11-02T07:25:55.602Z,93.63
2022-11-02T07:26:55.575Z,92.71
2022-11-02T07:27:55.596Z,92.81
2022-11-02T07:28:59.267Z,92.46
2022-11-02T07:29:55.557Z,92.15
2022-11-02T07:30:55.559Z,92.05
2022-11-02T07:31:55.544Z,91.54
2022-11-02T07:32:55.562Z,91.23
2022-11-02T07:33:55.532Z,91.03
2022-11-02T07:34:55.512Z,90.72
2022-11-02T07:35:55.519Z,90.47
2022-11-02T07:36:57.011Z,90.58
2022-11-02T07:37:55.526Z,90.58
2022-11-02T07:38:55.486Z,90.58
2022-11-02T07:39:55.488Z,90.68
2022-11-02T07:40:55.470Z,90.64
2022-11-02T07:41:55.518Z,90.64
2022-11-02T07:42:55.489Z,90.33
2022-11-02T07:43:55.449Z,91.00
2022-11-02T07:44:55.441Z,90.29
2022-11-02T07:45:55.440Z,89.78
2022-11-02T07:46:55.436Z,89.58
2022-11-02T07:47:55.455Z,89.63
2022-11-02T07:48:55.412Z,88.71
2022-11-02T07:49:55.427Z,88.67
2022-11-02T07:50:55.403Z,88.98
2022-11-02T07:51:55.392Z,88.67
2022-11-02T07:52:55.423Z,87.51
2022-11-02T07:53:55.378Z,87.06
2022-11-02T07:54:55.373Z,87.16
2022-11-02T07:55:56.000Z,86.04
2022-11-02T07:56:55.354Z,85.90
2022-11-02T07:57:55.368Z,85.53
2022-11-02T07:58:55.336Z,84.98
2022-11-02T07:59:55.921Z,84.47
2022-11-02T08:00:59.612Z,84.00
2022-11-02T08:01:56.367Z,84.41
2022-11-02T08:02:55.429Z,84.51
2022-11-02T08:03:55.300Z,84.61
2022-11-02T08:04:55.291Z,85.22
2022-11-02T08:05:55.285Z,86.24
2022-11-02T08:06:55.282Z,85.06
2022-11-02T08:07:55.265Z,85.06
2022-11-02T08:08:55.286Z,85.16
2022-11-02T08:09:55.250Z,85.27
2022-11-02T08:10:55.247Z,85.21
2022-11-02T08:11:55.264Z,85.77
2022-11-02T08:12:55.240Z,85.41
2022-11-02T08:13:55.249Z,85.92
2022-11-02T08:14:55.221Z,85.82
2022-11-02T08:15:55.221Z,85.92
2022-11-02T08:16:55.209Z,86.22
2022-11-02T08:17:55.258Z,86.22
2022-11-02T08:18:55.215Z,86.63
2022-11-02T08:19:55.180Z,86.43
2022-11-02T08:20:56.468Z,86.43
2022-11-02T08:21:56.173Z,86.43
2022-11-02T08:22:55.163Z,86.63
2022-11-02T08:23:58.573Z,86.57
2022-11-02T08:24:56.144Z,86.57
2022-11-02T08:25:55.138Z,86.43
2022-11-02T08:26:55.159Z,86.53
2022-11-02T08:27:55.163Z,86.16
2022-11-02T08:28:55.139Z,86.33
2022-11-02T08:29:55.107Z,86.63
2022-11-02T08:30:55.100Z,85.82
2022-11-02T08:31:55.097Z,85.88
2022-11-02T08:32:57.087Z,85.33
2022-11-02T08:33:56.600Z,83.96
2022-11-02T08:34:55.069Z,83.86
2022-11-02T08:35:55.105Z,84.03
2022-11-02T08:36:55.052Z,83.82
2022-11-02T08:37:55.040Z,83.21
2022-11-02T08:38:56.071Z,82.70
2022-11-02T08:39:55.035Z,82.29
2022-11-02T08:40:55.022Z,82.70
2022-11-02T08:41:55.023Z,82.29
2022-11-02T08:42:55.008Z,82.43
2022-11-02T08:43:55.029Z,82.29
2022-11-02T08:44:54.985Z,82.03
2022-11-02T08:46:13.739Z,81.52
2022-11-02T08:46:56.984Z,81.99
2022-11-02T08:47:54.965Z,81.99
2022-11-02T08:48:54.985Z,81.95
2022-11-02T08:49:54.951Z,81.34
2022-11-02T08:50:54.943Z,80.93
2022-11-02T08:51:54.928Z,81.10
2022-11-02T08:52:54.929Z,80.11
2022-11-02T08:53:54.949Z,80.42
2022-11-02T08:54:55.802Z,80.32
2022-11-02T08:55:54.908Z,80.18
2022-11-02T08:56:54.898Z,80.29
2022-11-02T08:57:54.890Z,80.59
2022-11-02T08:58:54.915Z,79.06
2022-11-02T08:59:54.875Z,79.37
2022-11-02T09:00:54.865Z,79.68
2022-11-02T09:01:54.959Z,79.98
2022-11-02T09:02:54.888Z,79.57
2022-11-02T09:03:54.839Z,79.50
2022-11-02T09:04:54.892Z,79.57
2022-11-02T09:05:54.821Z,79.47
2022-11-02T09:06:54.816Z,79.41
2022-11-02T09:07:54.803Z,79.47
2022-11-02T09:08:57.881Z,79.27
2022-11-02T09:09:54.815Z,79.61
2022-11-02T09:10:54.785Z,80.22
2022-11-02T09:11:54.798Z,79.91
2022-11-02T09:12:54.762Z,78.15
2022-11-02T09:13:57.113Z,78.96
2022-11-02T09:14:55.754Z,77.64
2022-11-02T09:15:54.749Z,77.74
2022-11-02T09:16:54.732Z,78.15
2022-11-02T09:17:54.727Z,77.94
2022-11-02T09:18:54.748Z,78.15
2022-11-02T09:19:54.715Z,77.67
2022-11-02T09:20:54.724Z,77.87
2022-11-02T09:21:54.704Z,78.35
2022-11-02T09:22:54.690Z,78.15
2022-11-02T09:23:54.676Z,77.03
2022-11-02T09:24:54.760Z,76.45
2022-11-02T09:25:54.664Z,77.10
2022-11-02T09:26:54.658Z,76.35
2022-11-02T09:27:55.745Z,77.47
2022-11-02T09:28:55.646Z,77.57
2022-11-02T09:29:54.675Z,77.44
2022-11-02T09:30:54.630Z,76.76
2022-11-02T09:31:54.620Z,77.13
2022-11-02T09:32:54.619Z,76.62
2022-11-02T09:33:54.605Z,76.42
2022-11-02T09:34:54.626Z,76.01
2022-11-02T09:35:54.590Z,76.11
2022-11-02T09:36:54.577Z,76.15
2022-11-02T09:37:54.582Z,76.01
2022-11-02T09:38:54.562Z,76.45
2022-11-02T09:39:54.587Z,76.01
2022-11-02T09:40:54.543Z,76.21
2022-11-02T09:41:54.539Z,74.89
2022-11-02T09:42:54.546Z,75.30
2022-11-02T09:43:54.526Z,76.07
2022-11-02T09:44:57.785Z,76.11
2022-11-02T09:45:54.514Z,74.89
2022-11-02T09:47:40.076Z,76.42
2022-11-02T09:48:15.773Z,75.84
2022-11-02T09:48:56.493Z,75.74
2022-11-02T09:49:54.502Z,74.79
2022-11-02T09:50:56.505Z,75.70
2022-11-02T09:51:54.467Z,75.74
2022-11-02T09:52:54.463Z,75.64
2022-11-02T09:53:54.447Z,76.11
2022-11-02T09:54:54.472Z,75.70
2022-11-02T09:55:54.433Z,74.93
2022-11-02T09:56:54.442Z,74.79
2022-11-02T09:57:54.418Z,74.79
2022-11-02T09:58:54.415Z,75.91
2022-11-02T09:59:54.433Z,74.62
2022-11-02T10:00:57.973Z,74.62
2022-11-02T10:01:55.406Z,76.25
2022-11-02T10:02:54.430Z,74.82
2022-11-02T10:03:54.374Z,74.69
2022-11-02T10:04:54.403Z,74.93
2022-11-02T10:05:54.364Z,74.99
2022-11-02T10:06:54.363Z,74.99
2022-11-02T10:07:54.360Z,74.89
2022-11-02T10:08:54.333Z,74.18
2022-11-02T10:09:54.352Z,74.89
2022-11-02T10:10:54.320Z,75.02
2022-11-02T10:11:54.313Z,74.82
2022-11-02T10:12:54.308Z,74.21
2022-11-02T10:13:56.749Z,74.11
2022-11-02T10:14:56.293Z,74.01
2022-11-02T10:15:54.275Z,74.82
2022-11-02T10:16:54.279Z,75.02
2022-11-02T10:17:54.265Z,74.72
2022-11-02T10:18:54.286Z,74.58
2022-11-02T10:19:54.264Z,75.02
2022-11-02T10:20:55.238Z,74.18
2022-11-02T10:21:54.240Z,73.47
2022-11-02T10:22:54.219Z,73.67
2022-11-02T10:23:54.215Z,74.48
2022-11-02T10:24:54.238Z,74.55
2022-11-02T10:25:54.198Z,74.04
2022-11-02T10:26:54.192Z,73.84
2022-11-02T10:27:54.223Z,74.45
2022-11-02T10:28:54.246Z,74.24
2022-11-02T10:30:13.082Z,74.04
2022-11-02T10:30:54.393Z,74.04
2022-11-02T10:31:54.152Z,73.84
2022-11-02T10:32:54.154Z,73.84
2022-11-02T10:33:57.074Z,73.91
2022-11-02T10:34:59.347Z,73.19
2022-11-02T10:36:16.866Z,72.89
2022-11-02T10:36:56.111Z,73.30
2022-11-02T10:37:54.107Z,73.23
2022-11-02T10:38:54.099Z,73.54
2022-11-02T10:39:54.092Z,73.70
2022-11-02T10:40:54.115Z,73.74
2022-11-02T10:41:54.106Z,73.84
2022-11-02T10:42:54.078Z,73.63
2022-11-02T10:44:00.777Z,72.01
2022-11-02T10:45:01.445Z,73.54
2022-11-02T10:45:54.077Z,72.86
2022-11-02T10:46:54.044Z,72.82
2022-11-02T10:47:54.038Z,72.96
2022-11-02T10:48:54.029Z,72.82
2022-11-02T10:49:54.015Z,73.43
2022-11-02T10:50:54.035Z,73.74
2022-11-02T10:51:54.007Z,73.97
2022-11-02T10:52:53.993Z,74.38
2022-11-02T10:53:54.102Z,73.84
2022-11-02T10:54:53.982Z,74.04
2022-11-02T10:55:53.999Z,73.02
2022-11-02T10:56:53.972Z,73.43
2022-11-02T10:57:53.976Z,72.92
2022-11-02T10:58:53.982Z,74.21
2022-11-02T10:59:56.881Z,73.94
2022-11-02T11:00:55.003Z,73.60
2022-11-02T11:01:53.970Z,72.38
2022-11-02T11:02:53.919Z,72.48
2022-11-02T11:03:53.955Z,72.69
2022-11-02T11:04:53.904Z,72.41
2022-11-02T11:05:53.929Z,72.89
2022-11-02T11:06:53.890Z,72.89
2022-11-02T11:07:53.923Z,71.87
2022-11-02T11:08:53.871Z,71.16
2022-11-02T11:09:53.895Z,70.72
2022-11-02T11:10:56.652Z,70.62
2022-11-02T11:11:53.857Z,71.12
2022-11-02T11:12:54.054Z,70.45
2022-11-02T11:15:55.820Z,69.95
2022-11-02T11:16:54.293Z,70.25
2022-11-02T11:19:55.792Z,69.03
2022-11-02T11:20:53.804Z,68.73
2022-11-02T11:21:53.784Z,69.51
2022-11-02T11:22:53.770Z,69.54
2022-11-02T11:23:53.758Z,69.64
2022-11-02T11:24:53.771Z,69.13
2022-11-02T11:25:53.777Z,68.42
2022-11-02T11:26:58.008Z,69.23
2022-11-02T11:27:55.760Z,69.84
2022-11-02T11:28:53.722Z,69.34
2022-11-02T11:29:53.713Z,69.54
2022-11-02T11:31:00.056Z,69.74
2022-11-02T11:31:55.699Z,68.62
2022-11-02T11:32:53.685Z,69.26
2022-11-02T11:33:53.680Z,69.30
2022-11-02T11:34:53.675Z,69.60
2022-11-02T11:35:53.700Z,69.33
2022-11-02T11:36:53.663Z,69.91
2022-11-02T11:37:53.648Z,67.57
2022-11-02T11:38:53.644Z,68.99
2022-11-02T11:39:54.913Z,69.60
2022-11-02T11:40:54.685Z,69.06
2022-11-02T11:41:53.623Z,69.47
2022-11-02T11:42:56.374Z,68.96
2022-11-02T11:43:54.605Z,67.91
2022-11-02T11:44:53.600Z,67.38
2022-11-02T11:45:53.633Z,67.58
2022-11-02T11:46:53.582Z,66.26
2022-11-02T11:47:53.576Z,66.77
2022-11-02T11:48:53.568Z,67.34
2022-11-02T11:50:16.556Z,67.31
2022-11-02T11:50:55.581Z,67.51
2022-11-02T11:51:53.544Z,66.91
2022-11-02T11:52:53.539Z,66.80
2022-11-02T11:53:53.556Z,66.16
2022-11-02T11:54:53.527Z,66.67
2022-11-02T11:55:53.514Z,65.59
2022-11-02T11:56:53.534Z,65.39
2022-11-02T11:57:53.494Z,65.48
2022-11-02T11:58:53.489Z,65.28
2022-11-02T11:59:53.481Z,63.76
2022-11-02T12:00:53.474Z,64.78
2022-11-02T12:01:53.632Z,64.47
2022-11-02T12:02:53.548Z,65.39
2022-11-02T12:03:53.454Z,65.62
2022-11-02T12:04:53.441Z,65.82
2022-11-02T12:05:53.466Z,65.14
2022-11-02T12:06:53.425Z,65.95
2022-11-02T12:08:04.882Z,65.85
2022-11-02T12:08:57.975Z,66.90
2022-11-02T12:09:54.415Z,66.39
2022-11-02T12:10:53.427Z,65.88
2022-11-02T12:11:53.398Z,65.10
2022-11-02T12:12:53.386Z,64.46
2022-11-02T12:13:53.385Z,65.99
2022-11-02T12:14:53.372Z,65.48
2022-11-02T12:15:53.390Z,66.08
2022-11-02T12:16:53.359Z,64.43
2022-11-02T12:17:53.451Z,64.94
2022-11-02T12:18:53.426Z,65.34
2022-11-02T12:19:53.329Z,64.23
2022-11-02T12:20:53.344Z,64.15
2022-11-02T12:21:53.322Z,64.36
2022-11-02T12:22:53.360Z,65.30
2022-11-02T12:23:53.293Z,65.48
2022-11-02T12:24:53.296Z,65.37
2022-11-02T12:25:53.359Z,64.97
2022-11-02T12:26:53.275Z,64.97
2022-11-02T12:27:53.265Z,65.34
2022-11-02T12:28:53.261Z,64.73
2022-11-02T12:29:53.253Z,65.24
2022-11-02T12:30:53.278Z,65.65
2022-11-02T12:31:58.109Z,65.75
2022-11-02T12:32:55.229Z,65.65
2022-11-02T12:33:53.225Z,66.86
2022-11-02T12:35:15.435Z,66.16
2022-11-02T12:35:55.210Z,66.16
2022-11-02T12:37:31.161Z,66.43
2022-11-02T12:37:55.201Z,66.13
2022-11-02T12:38:53.178Z,66.02
2022-11-02T12:39:53.179Z,66.05
2022-11-02T12:40:53.164Z,66.13
2022-11-02T12:41:53.185Z,66.23
2022-11-02T12:42:53.167Z,66.33
2022-11-02T12:43:53.152Z,66.09
2022-11-02T12:44:53.141Z,65.52
2022-11-02T12:45:53.129Z,65.92
2022-11-02T12:46:53.680Z,66.13
2022-11-02T12:47:53.113Z,65.75
2022-11-02T12:48:53.147Z,66.16
2022-11-02T12:49:53.092Z,66.36
2022-11-02T12:50:53.091Z,66.77
2022-11-02T12:51:53.114Z,66.26
2022-11-02T12:52:53.080Z,66.74
2022-11-02T12:53:53.069Z,68.08
2022-11-02T12:54:53.076Z,67.55
2022-11-02T12:55:53.056Z,67.14
2022-11-02T12:56:53.073Z,67.11
2022-11-02T12:57:53.036Z,67.21